Pigeon, Michigan
Current Conditions -  °F | °C
As of 8:38 AM on Thursday 30 Oct 2014 (Local Time) from KBAX Reporting Station
Clear Clear  
Wind Chill: 31°   Ceiling: Unl
Heat Index: 31°   Visibility: 10mi
Dew Point: 31°   Wind: 0mph
Humidity: 100%   Direction: NA
Pressure: 30.11"   Gusts: NA
Location:  43.83°N, 83.27°W
Report Text: KBAX 301238Z AUTO 00000KT 10SM CLR 00/00 A3011 RMK AO2 T10041004
Loading
Personal Weather Stations






























Interactive Weather Map
Tropical Storm Tracking
New forecast layout! Learn more

10-Day Weather Forecast

Advertisements
Track Severe Weather on mobile